首页
METAR-TAF:

METAR-TAF

机场 :

Schoolcraft County Airport

Manistique, 密歇根州, 美国

纬度: 45-58-29N, 经度: 086-10-19W, 海拔: 209米

当前天气观测

该预报发布于16分钟前的05:36 UTC
风速7节,风向
温度 0°C
湿度 93%
气压 1022 hPa
能見度: 16.1公里
多云层高于3300英尺
阴天层高于5000英尺

METAR: KISQ 310536Z AUTO 35007KT 10SM BKN033 OVC050 00/M01 A3018 RMK AO2 T00001015

时间: 01:52 (05:52 UTC)


TAF: 丢失

超过4000个机场的气象观测和天气预报(METAR&TAF报告)。

可查询的气象台以黄色和红色小点在地图上表示。

将鼠标移到小点上方,可查看气象台名称。

然后点击查看天气观测和预报。

如需切换地图:点击带黑十字的绿色按钮放大地图;点击带横线的绿色按钮缩小地图;或者点击绿色箭头查看邻近地区的地图。


METAR-TAF: